Columbia, Kentucky
Current Conditions -  °F | °C
As of 9:56 AM on Monday 24 Nov 2014 (Local Time) from KEKQ Reporting Station
Few Clouds Few Clouds  
Wind Chill: 64°   Ceiling: Unl
Heat Index: 64°   Visibility: 10mi
Dew Point: 46°   Wind: 30mph
Humidity: 52%   Direction: 230°SW
Pressure: 29.67"   Gusts: 39mph
Location:  37.1°N, 85.31°W
Report Text: KEKQ 241556Z AUTO 23026G34KT 10SM FEW070 18/08 A2967 RMK AO2 T01770077 PK WND 22036/1544 SLP044
Loading
Personal Weather Stations






























Interactive Weather Map New forecast layout! Learn more

10-Day Weather Forecast

Advertisements
Track Severe Weather on mobile